Time;durP1;ratioP1;P1;durP2;ratioP2;P2;SDS_P1;SDS_P2;PMS_P1;PMS_P2;Temp;Humidity;BMP_temperature;BMP_pressure;BME280_temperature;BME280_humidity;BME280_pressure;Samples;Min_cycle;Max_cycle;Signal;HPM_P1;HPM_P2
2023/12/02 00:03:06;;;;;;;0.00;0.00;;;;;;;-3.58;75.67;100440.28;15616328;28;20129;-48
2023/12/02 00:10:41;;;;;;;0.00;0.00;;;;;;;-3.98;75.87;100430.41;15620893;28;20042;-52
2023/12/02 00:18:15;;;;;;;0.00;0.00;;;;;;;-3.90;75.72;100434.09;15620200;28;20492;-50
2023/12/02 00:25:50;;;;;;;0.00;0.00;;;;;;;-5.23;78.99;100426.25;15602366;28;20103;-50
2023/12/02 00:33:23;;;;;;;0.00;0.00;;;;;;;-4.61;78.11;100417.13;15618293;28;20124;-56
2023/12/02 00:40:57;;;;;;;0.00;0.00;;;;;;;-4.40;77.01;100402.31;15600589;28;20044;-49
2023/12/02 00:48:31;;;;;;;0.00;0.00;;;;;;;-3.79;74.80;100414.84;15616414;28;20049;-48
2023/12/02 00:56:07;;;;;;;0.00;0.00;;;;;;;-4.21;75.89;100432.28;15618905;28;20072;-48
2023/12/02 01:03:42;;;;;;;0.00;0.00;;;;;;;-4.54;77.02;100417.44;15616752;28;20361;-50
2023/12/02 01:11:18;;;;;;;0.57;0.57;;;;;;;-5.09;79.75;100445.28;15616001;28;20041;-47
2023/12/02 01:18:52;;;;;;;0.00;0.00;;;;;;;-4.76;78.17;100382.47;15598037;28;20148;-50
2023/12/02 01:26:28;;;;;;;0.00;0.00;;;;;;;-4.89;77.70;100434.16;15616360;28;20308;-50
2023/12/02 01:34:02;;;;;;;0.00;0.00;;;;;;;-4.63;78.30;100447.81;15613721;28;20128;-48
2023/12/02 01:41:38;;;;;;;0.00;0.00;;;;;;;-5.10;78.32;100435.78;15598997;28;20320;-52
2023/12/02 01:49:12;;;;;;;0.00;0.00;;;;;;;-4.93;79.11;100435.31;15598850;28;20042;-47
2023/12/02 01:56:47;;;;;;;0.00;0.00;;;;;;;-4.74;78.18;100450.44;15614403;28;20042;-50
2023/12/02 02:04:43;;;;;;;0.03;0.03;;;;;;;-4.70;77.32;100450.09;15613165;28;20073;-49
2023/12/02 02:12:17;;;;;;;0.00;0.00;;;;;;;-4.58;76.41;100447.44;15613033;28;20069;-50
2023/12/02 02:19:51;;;;;;;0.10;0.10;;;;;;;-4.61;75.63;100456.41;15611993;28;20489;-49
2023/12/02 02:27:27;;;;;;;0.10;0.10;;;;;;;-5.26;78.17;100462.28;15612883;28;20447;-49
2023/12/02 02:35:04;;;;;;;0.00;0.00;;;;;;;-5.74;78.25;100451.88;15594342;28;20479;-50
2023/12/02 02:42:41;;;;;;;0.00;0.00;;;;;;;-5.17;77.59;100427.56;15577540;28;20041;-51
2023/12/02 02:50:14;;;;;;;0.00;0.00;;;;;;;-5.07;75.78;100417.25;15584062;28;20037;-53
2023/12/02 02:57:49;;;;;;;0.03;0.03;;;;;;;-5.49;77.31;100424.78;15617642;28;20041;-50
2023/12/02 03:05:23;;;;;;;0.00;0.00;;;;;;;-5.36;78.62;100436.00;15631558;28;20440;-47
2023/12/02 03:12:59;;;;;;;0.10;0.10;;;;;;;-5.39;77.54;100439.66;15631041;28;20034;-49
2023/12/02 03:20:32;;;;;;;0.00;0.00;;;;;;;-5.86;78.74;100451.03;15631029;28;20313;-54
2023/12/02 03:28:07;;;;;;;0.00;0.00;;;;;;;-5.86;78.88;100458.03;15630591;28;20093;-50
2023/12/02 03:35:41;;;;;;;0.20;0.20;;;;;;;-5.76;79.07;100459.84;15611027;28;20049;-49
2023/12/02 03:43:17;;;;;;;0.00;0.00;;;;;;;-5.25;76.28;100433.38;15630819;28;20042;-50
2023/12/02 03:50:51;;;;;;;0.10;0.10;;;;;;;-5.33;76.84;100442.75;15632831;28;20037;-50
2023/12/02 03:58:27;;;;;;;0.30;0.30;;;;;;;-5.46;77.84;100466.38;15633267;28;20033;-50
2023/12/02 04:06:01;;;;;;;0.00;0.00;;;;;;;-5.25;76.54;100475.25;15631587;28;20526;-50
2023/12/02 04:13:38;;;;;;;0.00;0.00;;;;;;;-4.94;75.07;100460.66;15621753;28;20532;-52
2023/12/02 04:21:12;;;;;;;0.00;0.00;;;;;;;-4.71;73.94;100437.94;15621137;28;20041;-51
2023/12/02 04:28:48;;;;;;;0.00;0.00;;;;;;;-5.89;77.36;100443.41;15618108;28;20041;-48
2023/12/02 04:36:22;;;;;;;0.00;0.00;;;;;;;-5.48;76.20;100440.34;15617330;28;20618;-47
2023/12/02 04:43:56;;;;;;;0.00;0.00;;;;;;;-6.10;78.53;100439.78;15615707;28;20048;-49
2023/12/02 04:51:32;;;;;;;0.00;0.00;;;;;;;-5.60;76.87;100448.25;15598436;28;20045;-50
2023/12/02 04:59:07;;;;;;;0.00;0.00;;;;;;;-6.25;77.71;100476.50;15608814;28;20524;-51
2023/12/02 05:06:41;;;;;;;0.00;0.00;;;;;;;-5.53;76.39;100484.31;15616547;28;20124;-48
2023/12/02 05:14:16;;;;;;;0.00;0.00;;;;;;;-6.36;79.23;100488.66;15597937;28;20045;-48
2023/12/02 05:21:50;;;;;;;0.10;0.10;;;;;;;-6.38;79.11;100491.38;15615344;28;20101;-51
2023/12/02 05:29:24;;;;;;;0.00;0.00;;;;;;;-5.91;77.96;100494.97;15597790;28;20080;-50
2023/12/02 05:36:58;;;;;;;0.00;0.00;;;;;;;-6.10;77.98;100505.09;15613444;28;20050;-52
2023/12/02 05:44:38;;;;;;;0.00;0.00;;;;;;;-6.42;79.07;100523.84;15651806;22;20122;-49
2023/12/02 05:52:11;;;;;;;0.10;0.10;;;;;;;-5.53;76.38;100513.06;15725418;28;20071;-52
2023/12/02 05:59:46;;;;;;;0.00;0.00;;;;;;;-5.46;76.81;100508.22;15739593;28;20035;-50
2023/12/02 06:07:21;;;;;;;0.00;0.00;;;;;;;-5.85;77.67;100519.81;15721473;28;20347;-49
2023/12/02 06:14:57;;;;;;;0.75;0.47;;;;;;;-6.02;79.21;100513.19;15722196;28;20045;-50
2023/12/02 06:22:30;;;;;;;0.00;0.00;;;;;;;-5.38;76.38;100508.47;15730602;28;20040;-54
2023/12/02 06:30:06;;;;;;;0.00;0.00;;;;;;;-5.13;75.75;100500.50;15738801;28;20143;-50
2023/12/02 06:37:40;;;;;;;0.00;0.00;;;;;;;-5.52;75.95;100513.91;15719753;28;20328;-49
2023/12/02 06:45:14;;;;;;;0.00;0.00;;;;;;;-5.44;76.00;100512.41;15728919;28;20088;-53
2023/12/02 06:52:48;;;;;;;0.00;0.00;;;;;;;-4.97;76.39;100526.31;15749846;28;20048;-52
2023/12/02 07:00:24;;;;;;;0.00;0.00;;;;;;;-5.16;76.24;100528.66;15745992;28;20036;-55
2023/12/02 07:08:02;;;;;;;0.00;0.00;;;;;;;-4.89;74.31;100536.22;15745326;28;20079;-49
2023/12/02 07:15:37;;;;;;;0.10;0.10;;;;;;;-4.90;77.11;100548.50;15741580;28;20061;-52
2023/12/02 07:23:10;;;;;;;0.00;0.00;;;;;;;-4.88;76.32;100567.50;15686942;28;20045;-51
2023/12/02 07:30:45;;;;;;;0.00;0.00;;;;;;;-4.42;75.53;100569.25;15716715;28;20048;-52
2023/12/02 07:38:18;;;;;;;0.00;0.00;;;;;;;-4.39;74.73;100569.00;15718816;28;20051;-49
2023/12/02 07:45:53;;;;;;;0.10;0.10;;;;;;;-3.98;74.58;100569.34;15731540;28;20391;-49
2023/12/02 07:53:26;;;;;;;0.00;0.00;;;;;;;-4.39;77.12;100574.25;15727619;28;20083;-51
2023/12/02 08:01:03;;;;;;;0.63;0.63;;;;;;;-4.14;75.37;100574.97;15743648;28;20044;-50
2023/12/02 08:08:36;;;;;;;0.15;0.15;;;;;;;-4.08;75.29;100579.72;15744690;28;20412;-53
2023/12/02 08:16:11;;;;;;;0.00;0.00;;;;;;;-3.96;75.78;100588.44;15721433;28;20048;-50
2023/12/02 08:23:45;;;;;;;0.00;0.00;;;;;;;-4.34;77.19;100589.59;15748908;28;20048;-50
2023/12/02 08:31:21;;;;;;;0.00;0.00;;;;;;;-4.35;77.31;100590.56;15751832;28;20037;-51
2023/12/02 08:38:56;;;;;;;0.10;0.10;;;;;;;-3.85;75.60;100612.00;15719904;28;20049;-53
2023/12/02 08:46:34;;;;;;;0.00;0.00;;;;;;;-3.22;74.71;100599.94;15728245;28;20511;-51
2023/12/02 08:54:10;;;;;;;0.00;0.00;;;;;;;-2.75;73.75;100610.97;15724153;28;20036;-53
2023/12/02 09:01:45;;;;;;;0.00;0.00;;;;;;;-2.93;74.12;100617.75;15724070;28;20102;-52
2023/12/02 09:09:18;;;;;;;0.40;0.40;;;;;;;-2.84;74.06;100604.69;15725188;28;20044;-51
2023/12/02 09:16:53;;;;;;;0.22;0.22;;;;;;;-3.35;75.97;100605.34;15715875;28;20099;-52
2023/12/02 09:24:36;;;;;;;0.00;0.00;;;;;;;-3.50;78.39;100598.69;15722706;28;20490;-49
2023/12/02 09:32:34;;;;;;;;;;;;;;;-2.94;76.71;100601.16;15726396;28;20043;-51
2023/12/02 09:40:37;;;;;;;0.00;0.00;;;;;;;-2.94;77.21;100616.03;15734834;28;20390;-51
2023/12/02 09:48:20;;;;;;;0.10;0.10;;;;;;;-2.51;76.11;100615.13;15717174;28;20041;-50
2023/12/02 09:56:00;;;;;;;0.00;0.00;;;;;;;-2.71;76.58;100622.84;15698372;28;20136;-49
2023/12/02 10:03:54;;;;;;;0.00;0.00;;;;;;;-2.44;76.83;100624.97;15739863;28;20060;-53
2023/12/02 10:11:34;;;;;;;0.08;0.08;;;;;;;-2.11;75.92;100616.00;15734398;28;20048;-50
2023/12/02 10:19:13;;;;;;;0.00;0.00;;;;;;;-2.15;75.65;100609.34;15740041;28;20383;-51
2023/12/02 10:26:54;;;;;;;0.00;0.00;;;;;;;-2.14;76.10;100603.16;15712507;28;20053;-50
2023/12/02 10:34:38;;;;;;;0.05;0.05;;;;;;;-2.59;77.92;100600.00;15737800;28;20498;-51
2023/12/02 10:42:19;;;;;;;0.57;0.57;;;;;;;-2.74;79.08;100603.91;15719111;28;20040;-53
2023/12/02 10:50:00;;;;;;;0.45;0.40;;;;;;;-2.75;78.84;100589.09;15713005;28;20455;-53
2023/12/02 10:57:36;;;;;;;0.00;0.00;;;;;;;-2.21;77.21;100585.41;15713330;28;20044;-50
2023/12/02 11:05:28;;;;;;;0.00;0.00;;;;;;;-2.38;76.67;100594.72;15728999;28;20487;-51
2023/12/02 11:13:04;;;;;;;0.00;0.00;;;;;;;-2.47;76.46;100592.84;15733268;28;20396;-50
2023/12/02 11:20:47;;;;;;;0.00;0.00;;;;;;;-2.41;76.53;100580.06;15722789;28;20049;-55
2023/12/02 11:28:28;;;;;;;0.00;0.00;;;;;;;-2.67;76.38;100592.75;15743552;28;20439;-49
2023/12/02 11:36:11;;;;;;;0.00;0.00;;;;;;;-2.52;77.54;100590.63;15747871;28;20056;-52
2023/12/02 11:43:57;;;;;;;0.00;0.00;;;;;;;-2.90;78.15;100586.78;15740117;28;20064;-50
2023/12/02 11:51:43;;;;;;;0.00;0.00;;;;;;;-2.67;76.46;100581.41;15727217;28;20470;-52
2023/12/02 11:59:17;;;;;;;0.05;0.05;;;;;;;-3.16;79.42;100596.81;15733748;28;20513;-46
2023/12/02 12:07:08;;;;;;;0.00;0.00;;;;;;;-3.14;78.20;100610.63;15740815;28;20098;-50
2023/12/02 12:14:42;;;;;;;0.00;0.00;;;;;;;-3.36;78.72;100601.06;15740610;28;20048;-52
2023/12/02 12:22:19;;;;;;;0.00;0.00;;;;;;;-3.23;78.79;100610.56;15746087;28;20052;-51
2023/12/02 12:29:53;;;;;;;0.00;0.00;;;;;;;-3.18;78.58;100613.63;15727550;28;20198;-52
2023/12/02 12:37:28;;;;;;;0.00;0.00;;;;;;;-2.88;78.43;100613.75;15746236;28;20059;-49
2023/12/02 12:45:02;;;;;;;0.00;0.00;;;;;;;-2.97;78.06;100626.81;15728558;28;20050;-52
2023/12/02 12:52:44;;;;;;;0.00;0.00;;;;;;;-2.94;78.49;100631.81;15746722;28;20048;-52
2023/12/02 13:00:18;;;;;;;0.00;0.00;;;;;;;-2.81;78.19;100621.97;15744904;28;20410;-51
2023/12/02 13:08:04;;;;;;;0.00;0.00;;;;;;;-2.66;77.95;100606.72;15743906;28;20075;-53
2023/12/02 13:15:41;;;;;;;0.63;0.63;;;;;;;-2.39;77.46;100627.22;15727973;28;20406;-52
2023/12/02 13:23:24;;;;;;;0.10;0.10;;;;;;;-2.25;76.88;100645.28;15739548;28;20036;-51
2023/12/02 13:30:58;;;;;;;;;;;;;;;-1.95;74.89;100641.84;15696418;28;20059;-53
2023/12/02 13:38:35;;;;;;;0.00;0.00;;;;;;;-1.79;75.11;100638.72;15721204;28;20007;-51
2023/12/02 13:46:16;;;;;;;0.05;0.05;;;;;;;-2.36;77.71;100653.25;15752365;28;20040;-54
2023/12/02 13:54:06;;;;;;;0.10;0.10;;;;;;;-2.04;75.72;100654.97;15737941;28;20056;-49
2023/12/02 14:01:45;;;;;;;0.10;0.10;;;;;;;-2.13;75.65;100673.19;15751904;28;20131;-54
2023/12/02 14:09:23;;;;;;;0.10;0.10;;;;;;;-2.21;75.99;100677.41;15734563;28;20040;-53
2023/12/02 14:17:10;;;;;;;0.00;0.00;;;;;;;-2.14;76.17;100686.47;15734775;28;20066;-52
2023/12/02 14:25:09;;;;;;;0.20;0.20;;;;;;;-2.09;76.06;100700.06;15731391;28;20440;-52
2023/12/02 14:33:02;;;;;;;0.10;0.10;;;;;;;-2.42;77.84;100706.34;15723481;28;20079;-50
2023/12/02 14:40:50;;;;;;;0.03;0.03;;;;;;;-2.29;76.72;100722.72;15729911;28;20044;-54
2023/12/02 14:48:26;;;;;;;0.00;0.00;;;;;;;-2.36;76.67;100734.72;15732193;28;20102;-50
2023/12/02 14:56:00;;;;;;;0.10;0.10;;;;;;;-2.51;77.58;100733.38;15737711;28;20226;-49
2023/12/02 15:03:35;;;;;;;0.22;0.22;;;;;;;-2.60;78.24;100742.84;15722104;28;20043;-49
2023/12/02 15:11:11;;;;;;;0.00;0.00;;;;;;;-2.25;77.75;100754.88;15739305;28;20063;-52
2023/12/02 15:18:46;;;;;;;0.08;0.08;;;;;;;-2.76;79.75;100764.25;15730657;28;20502;-52
2023/12/02 15:26:20;;;;;;;0.05;0.05;;;;;;;-2.49;78.71;100770.88;15706126;28;20071;-51
2023/12/02 15:33:55;;;;;;;0.00;0.00;;;;;;;-2.34;78.30;100780.94;15700110;28;20188;-55
2023/12/02 15:41:30;;;;;;;0.00;0.00;;;;;;;-2.50;77.96;100793.69;15736591;28;20032;-49
2023/12/02 15:49:07;;;;;;;0.00;0.00;;;;;;;-2.79;79.72;100809.19;15733566;28;20455;-51
2023/12/02 15:56:44;;;;;;;0.70;0.55;;;;;;;-2.89;77.87;100756.56;15733788;28;20075;-51
2023/12/02 16:04:18;;;;;;;0.80;0.80;;;;;;;-2.40;79.09;100806.91;15705338;28;20044;-53
2023/12/02 16:11:57;;;;;;;0.10;0.10;;;;;;;-2.93;79.86;100817.31;15749131;28;20189;-55
2023/12/02 16:19:31;;;;;;;0.00;0.00;;;;;;;-3.29;81.07;100786.91;15748559;28;20041;-52
2023/12/02 16:27:07;;;;;;;0.05;0.05;;;;;;;-2.95;81.60;100806.91;15748056;28;20044;-50
2023/12/02 16:34:41;;;;;;;0.10;0.10;;;;;;;-2.75;81.09;100817.63;15731842;28;20029;-54
2023/12/02 16:42:16;;;;;;;0.00;0.00;;;;;;;-2.50;79.57;100817.34;15731255;28;20043;-49
2023/12/02 16:49:50;;;;;;;0.05;0.05;;;;;;;-2.73;79.65;100829.69;15750411;28;20052;-52
2023/12/02 16:57:26;;;;;;;0.00;0.00;;;;;;;-2.18;78.28;100819.97;15732524;28;20449;-52
2023/12/02 17:05:00;;;;;;;0.10;0.10;;;;;;;-1.98;77.43;100828.00;15730038;28;20409;-51
2023/12/02 17:12:35;;;;;;;0.63;0.63;;;;;;;-2.14;78.42;100833.72;15742973;28;20032;-50
2023/12/02 17:20:14;;;;;;;1.48;0.95;;;;;;;-2.42;78.90;100843.00;15718694;28;20036;-54
2023/12/02 17:27:49;;;;;;;0.00;0.00;;;;;;;-2.40;79.29;100851.59;15759425;28;20112;-54
2023/12/02 17:35:22;;;;;;;0.13;0.13;;;;;;;-2.43;79.90;100862.34;15743041;28;20561;-50
2023/12/02 17:42:57;;;;;;;0.47;0.47;;;;;;;-2.38;79.09;100853.16;15744370;28;20104;-52
2023/12/02 17:50:30;;;;;;;1.08;0.57;;;;;;;-2.21;78.85;100866.72;15741385;28;20478;-53
2023/12/02 17:58:05;;;;;;;0.00;0.00;;;;;;;-2.45;79.24;100870.34;15721475;28;20052;-54
2023/12/02 18:05:38;;;;;;;0.00;0.00;;;;;;;-2.59;79.58;100868.84;15720380;28;20509;-54
2023/12/02 18:13:14;;;;;;;0.00;0.00;;;;;;;-2.29;79.97;100885.72;15730148;28;20043;-52
2023/12/02 18:20:52;;;;;;;0.25;0.25;;;;;;;-2.15;79.29;100880.19;15704315;28;20049;-54
2023/12/02 18:28:27;;;;;;;0.00;0.00;;;;;;;-2.37;79.68;100885.53;15725587;28;20049;-54
2023/12/02 18:36:01;;;;;;;0.60;0.50;;;;;;;-2.45;79.35;100878.25;15702108;28;20071;-51
2023/12/02 18:43:36;;;;;;;0.00;0.00;;;;;;;-2.08;78.27;100891.06;15737469;28;20102;-52
2023/12/02 18:51:10;;;;;;;0.05;0.05;;;;;;;-2.03;78.88;100891.50;15719798;28;20067;-52
2023/12/02 18:58:45;;;;;;;0.98;0.95;;;;;;;-1.95;77.33;100899.63;15730214;28;20094;-52
2023/12/02 19:06:18;;;;;;;0.30;0.30;;;;;;;-1.81;78.25;100912.47;15737798;28;20040;-54
2023/12/02 19:13:53;;;;;;;0.00;0.00;;;;;;;-1.82;77.64;100918.69;15709155;28;20045;-54
2023/12/02 19:21:27;;;;;;;0.38;0.38;;;;;;;-1.82;78.07;100928.38;15736426;28;20047;-55
2023/12/02 19:29:01;;;;;;;1.73;1.63;;;;;;;-1.92;78.17;100940.59;15736854;28;20287;-51
2023/12/02 19:36:35;;;;;;;0.38;0.38;;;;;;;-2.16;79.29;100951.31;15716621;28;20033;-52
2023/12/02 19:44:10;;;;;;;0.22;0.22;;;;;;;-2.31;79.83;100956.00;15744065;28;20037;-54
2023/12/02 19:51:43;;;;;;;1.02;1.00;;;;;;;-1.85;78.57;100963.66;15720818;28;20386;-52
2023/12/02 19:59:19;;;;;;;0.10;0.10;;;;;;;-2.04;79.06;100966.13;15737719;28;20047;-52
2023/12/02 20:06:53;;;;;;;2.40;0.57;;;;;;;-1.64;77.96;100981.28;15744689;28;20070;-55
2023/12/02 20:14:27;;;;;;;;;;;;;;;-1.63;77.82;100989.06;15737174;28;20124;-53
2023/12/02 20:22:01;;;;;;;0.00;0.00;;;;;;;-1.69;79.00;101007.97;15735548;28;20085;-53
2023/12/02 20:29:36;;;;;;;0.43;0.43;;;;;;;-1.79;78.91;101009.69;15718867;28;20087;-51
2023/12/02 20:37:11;;;;;;;0.30;0.30;;;;;;;-1.53;79.08;101012.84;15729954;28;20514;-51
2023/12/02 20:44:46;;;;;;;0.10;0.10;;;;;;;-1.78;79.58;101011.34;15742980;28;20477;-52
2023/12/02 20:52:19;;;;;;;0.73;0.55;;;;;;;-1.80;79.13;101026.44;15727123;28;20036;-51
2023/12/02 20:59:54;;;;;;;0.52;0.52;;;;;;;-1.48;78.74;101036.16;15735045;28;20044;-52
2023/12/02 21:07:29;;;;;;;0.20;0.20;;;;;;;-1.85;79.89;101036.50;15720543;28;20051;-53
2023/12/02 21:15:05;;;;;;;0.15;0.15;;;;;;;-1.80;79.72;101040.44;15725635;28;20495;-51
2023/12/02 21:22:40;;;;;;;0.20;0.20;;;;;;;-1.63;78.92;101036.44;15719824;28;20040;-54
2023/12/02 21:30:35;;;;;;;0.30;0.30;;;;;;;-1.77;79.23;101042.00;15738111;28;20534;-54
2023/12/02 21:38:32;;;;;;;1.15;0.88;;;;;;;-1.45;78.58;101044.63;15731159;28;20033;-52
2023/12/02 21:46:18;;;;;;;0.63;0.63;;;;;;;-1.53;79.53;101056.75;15736402;28;20068;-54
2023/12/02 21:53:56;;;;;;;0.00;0.00;;;;;;;-1.23;78.02;101063.94;15737529;28;20619;-50
2023/12/02 22:01:35;;;;;;;0.20;0.20;;;;;;;-1.63;79.91;101065.41;15736471;28;20064;-51
2023/12/02 22:09:09;;;;;;;0.10;0.10;;;;;;;-1.39;78.60;101083.63;15703350;28;20049;-55
2023/12/02 22:16:44;;;;;;;0.00;0.00;;;;;;;-1.11;77.84;101091.91;15737003;28;20495;-52
2023/12/02 22:24:18;;;;;;;0.15;0.15;;;;;;;-1.61;80.17;101087.16;15730167;28;20207;-51
2023/12/02 22:31:54;;;;;;;0.05;0.05;;;;;;;-1.27;78.84;101108.13;15734610;28;20427;-53
2023/12/02 22:39:29;;;;;;;0.35;0.35;;;;;;;-1.09;79.02;101111.88;15734289;28;20098;-53
2023/12/02 22:47:04;;;;;;;0.00;0.00;;;;;;;-1.04;79.56;101120.25;15717358;28;20234;-50
2023/12/02 22:54:39;;;;;;;0.00;0.00;;;;;;;-1.46;79.93;101135.09;15733401;28;20063;-52
2023/12/02 23:02:14;;;;;;;0.60;0.60;;;;;;;-1.22;79.37;101141.97;15726064;28;20036;-55
2023/12/02 23:09:49;;;;;;;0.50;0.50;;;;;;;-1.09;79.55;101148.78;15699315;28;20164;-53
2023/12/02 23:17:25;;;;;;;0.30;0.22;;;;;;;-0.94;78.65;101156.38;15724039;28;20033;-54
2023/12/02 23:24:58;;;;;;;0.00;0.00;;;;;;;-1.04;79.05;101161.56;15725146;28;20040;-52
2023/12/02 23:32:34;;;;;;;0.10;0.10;;;;;;;-0.97;78.46;101169.81;15742750;28;20419;-55
2023/12/02 23:40:09;;;;;;;0.10;0.10;;;;;;;-1.08;78.24;101168.88;15739749;28;20419;-50
2023/12/02 23:47:43;;;;;;;0.47;0.47;;;;;;;-1.49;79.34;101176.63;15731045;28;20041;-53
2023/12/02 23:55:17;;;;;;;0.10;0.10;;;;;;;-1.46;79.42;101182.50;15739497;28;20075;-52
